createdAt,value
2022-11-12T00:00:52.890Z,12.63
2022-11-12T00:03:20.328Z,9.03
2022-11-12T00:05:46.940Z,13.73
2022-11-12T00:08:13.571Z,3.93
2022-11-12T00:10:40.047Z,16.00
2022-11-12T00:13:07.641Z,11.10
2022-11-12T00:15:34.204Z,5.40
2022-11-12T00:18:00.684Z,8.80
2022-11-12T00:20:27.155Z,7.43
2022-11-12T00:22:53.663Z,9.17
2022-11-12T00:25:20.118Z,12.07
2022-11-12T00:27:46.551Z,7.00
2022-11-12T00:30:13.483Z,11.00
2022-11-12T00:32:39.918Z,7.83
2022-11-12T00:35:12.428Z,12.77
2022-11-12T00:37:40.394Z,5.10
2022-11-12T00:40:07.990Z,7.13
2022-11-12T00:42:34.432Z,10.27
2022-11-12T00:45:00.977Z,14.37
2022-11-12T00:47:27.493Z,9.53
2022-11-12T00:49:53.918Z,9.40
2022-11-12T00:52:20.413Z,10.17
2022-11-12T00:54:46.921Z,9.83
2022-11-12T00:57:13.445Z,6.47
2022-11-12T00:59:40.065Z,5.90
2022-11-12T01:02:06.586Z,6.53
2022-11-12T01:04:33.211Z,6.67
2022-11-12T01:07:00.071Z,5.70
2022-11-12T01:09:26.607Z,6.20
2022-11-12T01:11:53.314Z,11.90
2022-11-12T01:14:19.806Z,8.13
2022-11-12T01:16:46.359Z,8.10
2022-11-12T01:19:13.825Z,5.07
2022-11-12T01:21:43.195Z,6.80
2022-11-12T01:24:10.320Z,8.27
2022-11-12T01:26:37.470Z,3.07
2022-11-12T01:29:04.580Z,8.27
2022-11-12T01:31:33.851Z,9.53
2022-11-12T01:34:02.522Z,10.63
2022-11-12T01:36:33.699Z,8.73
2022-11-12T01:39:00.406Z,6.80
2022-11-12T01:41:32.839Z,8.20
2022-11-12T01:44:11.402Z,6.73
2022-11-12T01:46:47.321Z,6.47
2022-11-12T01:49:27.346Z,4.67
2022-11-12T01:51:54.953Z,8.23
2022-11-12T01:54:21.930Z,6.60
2022-11-12T01:56:50.315Z,6.10
2022-11-12T01:59:28.175Z,12.83
2022-11-12T02:01:54.713Z,9.60
2022-11-12T02:04:21.870Z,7.73
2022-11-12T02:06:48.933Z,10.07
2022-11-12T02:09:15.583Z,7.67
2022-11-12T02:11:42.058Z,6.83
2022-11-12T02:14:08.732Z,11.10
2022-11-12T02:16:38.809Z,9.10
2022-11-12T02:19:07.609Z,3.63
2022-11-12T02:21:34.877Z,6.73
2022-11-12T02:24:12.058Z,8.53
2022-11-12T02:26:42.020Z,6.10
2022-11-12T02:29:08.976Z,6.70
2022-11-12T02:31:36.065Z,4.53
2022-11-12T02:34:02.878Z,6.30
2022-11-12T02:36:30.136Z,6.10
2022-11-12T02:38:56.819Z,9.30
2022-11-12T02:41:23.851Z,4.40
2022-11-12T02:43:50.343Z,9.57
2022-11-12T02:46:16.958Z,7.40
2022-11-12T02:48:44.339Z,6.07
2022-11-12T02:51:10.905Z,6.07
2022-11-12T02:53:37.441Z,5.10
2022-11-12T02:56:04.406Z,13.13
2022-11-12T02:58:30.981Z,10.50
2022-11-12T03:00:57.781Z,7.83
2022-11-12T03:03:24.299Z,5.73
2022-11-12T03:05:59.323Z,8.73
2022-11-12T03:08:26.259Z,5.33
2022-11-12T03:10:53.356Z,12.03
2022-11-12T03:13:20.692Z,8.40
2022-11-12T03:15:47.374Z,8.10
2022-11-12T03:18:13.916Z,3.23
2022-11-12T03:20:40.989Z,8.17
2022-11-12T03:23:10.153Z,11.17
2022-11-12T03:25:37.202Z,6.67
2022-11-12T03:28:09.739Z,5.80
2022-11-12T03:30:38.856Z,9.37
2022-11-12T03:33:06.618Z,7.23
2022-11-12T03:35:33.768Z,13.03
2022-11-12T03:38:00.933Z,10.97
2022-11-12T03:40:28.132Z,9.47
2022-11-12T03:42:54.602Z,8.20
2022-11-12T03:45:22.844Z,5.40
2022-11-12T03:47:51.575Z,10.63
2022-11-12T03:50:19.530Z,5.07
2022-11-12T03:52:51.183Z,10.47
2022-11-12T03:55:20.634Z,4.00
2022-11-12T03:57:51.049Z,10.10
2022-11-12T04:00:18.605Z,7.47
2022-11-12T04:02:45.486Z,3.57
2022-11-12T04:05:30.583Z,4.00
2022-11-12T04:08:19.916Z,9.53
2022-11-12T04:10:46.630Z,11.37
2022-11-12T04:13:28.396Z,6.80
2022-11-12T04:16:13.370Z,8.50
2022-11-12T04:18:58.886Z,5.70
2022-11-12T04:21:50.745Z,8.77
2022-11-12T04:24:47.555Z,9.67
2022-11-12T04:27:19.968Z,4.30
2022-11-12T04:30:05.878Z,11.70
2022-11-12T04:32:34.218Z,7.40
2022-11-12T04:35:01.048Z,14.47
2022-11-12T04:37:29.384Z,13.13
2022-11-12T04:39:55.890Z,9.50
2022-11-12T04:43:00.763Z,4.10
2022-11-12T04:45:27.221Z,6.33
2022-11-12T04:47:53.791Z,4.50
2022-11-12T04:50:20.374Z,7.03
2022-11-12T04:52:47.101Z,6.43
2022-11-12T04:55:13.606Z,3.53
2022-11-12T04:57:40.448Z,6.83
2022-11-12T05:00:07.468Z,9.27
2022-11-12T05:02:33.975Z,10.67
2022-11-12T05:05:00.486Z,7.47
2022-11-12T05:07:26.975Z,6.63
2022-11-12T05:09:53.486Z,8.63
2022-11-12T05:12:19.911Z,9.63
2022-11-12T05:14:46.426Z,9.23
2022-11-12T05:17:12.873Z,5.40
2022-11-12T05:19:39.388Z,6.83
2022-11-12T05:22:05.864Z,9.43
2022-11-12T05:24:42.598Z,6.57
2022-11-12T05:27:14.382Z,7.53
2022-11-12T05:29:40.993Z,9.03
2022-11-12T05:32:09.109Z,4.67
2022-11-12T05:34:35.628Z,7.30
2022-11-12T05:37:03.112Z,9.63
2022-11-12T05:39:29.776Z,7.30
2022-11-12T05:42:12.541Z,6.43
2022-11-12T05:44:40.150Z,8.50
2022-11-12T05:47:06.619Z,6.50
2022-11-12T05:49:33.199Z,5.13
2022-11-12T05:51:59.629Z,6.03
2022-11-12T05:54:26.211Z,5.07
2022-11-12T05:56:53.608Z,7.50
2022-11-12T05:59:20.142Z,6.70
2022-11-12T06:01:46.736Z,8.43
2022-11-12T06:04:16.656Z,10.43
2022-11-12T06:06:43.837Z,9.70
2022-11-12T06:09:10.586Z,6.33
2022-11-12T06:11:37.331Z,10.23
2022-11-12T06:14:04.163Z,8.53
2022-11-12T06:16:31.295Z,4.17
2022-11-12T06:18:57.877Z,6.63
2022-11-12T06:21:24.686Z,8.83
2022-11-12T06:24:00.354Z,6.80
2022-11-12T06:26:28.530Z,4.70
2022-11-12T06:28:55.856Z,7.93
2022-11-12T06:31:22.555Z,9.80
2022-11-12T06:33:50.273Z,9.80
2022-11-12T06:36:18.972Z,8.03
2022-11-12T06:38:45.662Z,8.97
2022-11-12T06:41:12.931Z,9.10
2022-11-12T06:43:39.893Z,13.87
2022-11-12T06:46:12.680Z,10.93
2022-11-12T06:48:39.481Z,8.70
2022-11-12T06:51:19.829Z,9.40
2022-11-12T06:53:46.552Z,15.17
2022-11-12T06:56:13.462Z,10.30
2022-11-12T06:58:40.102Z,6.33
2022-11-12T07:01:12.549Z,6.10
2022-11-12T07:03:41.580Z,10.50
2022-11-12T07:06:10.277Z,17.50
2022-11-12T07:08:37.144Z,11.10
2022-11-12T07:11:04.179Z,5.83
2022-11-12T07:13:32.504Z,6.07
2022-11-12T07:16:00.725Z,9.50
2022-11-12T07:18:28.514Z,7.83
2022-11-12T07:21:08.684Z,7.07
2022-11-12T07:23:36.394Z,15.07
2022-11-12T07:26:14.167Z,6.87
2022-11-12T07:28:40.855Z,7.00
2022-11-12T07:31:10.485Z,8.63
2022-11-12T07:33:37.169Z,12.43
2022-11-12T07:36:12.277Z,9.97
2022-11-12T07:38:40.401Z,8.03
2022-11-12T07:41:13.086Z,14.33
2022-11-12T07:43:40.203Z,17.63
2022-11-12T07:46:11.015Z,30.00
2022-11-12T07:48:38.403Z,39.63
2022-11-12T07:51:12.724Z,32.70
2022-11-12T07:53:39.734Z,14.50
2022-11-12T07:56:06.648Z,14.80
2022-11-12T07:58:34.639Z,8.80
2022-11-12T08:01:31.444Z,10.83
2022-11-12T08:03:59.049Z,15.43
2022-11-12T08:06:25.816Z,10.07
2022-11-12T08:08:53.237Z,7.57
2022-11-12T08:11:19.799Z,6.57
2022-11-12T08:13:46.250Z,7.90
2022-11-12T08:16:13.072Z,14.60
2022-11-12T08:18:39.620Z,9.67
2022-11-12T08:21:07.938Z,9.63
2022-11-12T08:23:35.239Z,5.30
2022-11-12T08:26:03.656Z,22.67
2022-11-12T08:28:33.082Z,17.90
2022-11-12T08:31:13.166Z,7.37
2022-11-12T08:33:40.069Z,21.87
2022-11-12T08:36:08.534Z,22.17
2022-11-12T08:38:35.740Z,61.30
2022-11-12T08:41:07.636Z,36.90
2022-11-12T08:43:34.766Z,18.40
2022-11-12T08:46:02.212Z,11.07
2022-11-12T08:48:30.272Z,11.53
2022-11-12T08:50:57.277Z,47.80
2022-11-12T08:53:25.006Z,36.27
2022-11-12T08:55:55.889Z,16.80
2022-11-12T08:58:23.455Z,41.43
2022-11-12T09:00:50.913Z,15.13
2022-11-12T09:03:19.622Z,16.23
2022-11-12T09:05:46.330Z,12.80
2022-11-12T09:08:16.099Z,16.73
2022-11-12T09:10:42.890Z,16.40
2022-11-12T09:13:09.617Z,17.43
2022-11-12T09:15:38.054Z,20.13
2022-11-12T09:18:07.734Z,21.03
2022-11-12T09:20:34.223Z,16.53
2022-11-12T09:23:02.658Z,18.03
2022-11-12T09:25:29.678Z,12.37
2022-11-12T09:27:56.179Z,20.37
2022-11-12T09:30:22.699Z,21.00
2022-11-12T09:32:49.326Z,18.87
2022-11-12T09:35:15.831Z,22.40
2022-11-12T09:37:42.418Z,33.47
2022-11-12T09:40:17.546Z,18.63
2022-11-12T09:42:45.403Z,27.43
2022-11-12T09:45:15.014Z,27.00
2022-11-12T09:47:46.116Z,12.10
2022-11-12T09:50:22.757Z,9.63
2022-11-12T09:52:56.542Z,10.20
2022-11-12T09:55:30.728Z,23.20
2022-11-12T09:57:57.492Z,63.87
2022-11-12T10:00:24.028Z,49.87
2022-11-12T10:03:16.187Z,15.03
2022-11-12T10:05:53.623Z,14.10
2022-11-12T10:08:29.444Z,17.83
2022-11-12T10:11:20.398Z,12.73
2022-11-12T10:14:08.921Z,17.10
2022-11-12T10:16:55.266Z,9.53
2022-11-12T10:19:27.261Z,15.13
2022-11-12T10:22:18.439Z,12.93
2022-11-12T10:24:45.199Z,18.80
2022-11-12T10:27:28.461Z,12.87
2022-11-12T10:30:07.062Z,13.30
2022-11-12T10:32:34.468Z,13.90
2022-11-12T10:35:00.916Z,21.97
2022-11-12T10:37:46.582Z,13.10
2022-11-12T10:40:22.681Z,11.73
2022-11-12T10:42:56.427Z,19.07
2022-11-12T10:45:23.621Z,12.17
2022-11-12T10:47:50.742Z,12.83
2022-11-12T10:50:30.228Z,11.33
2022-11-12T10:52:57.924Z,13.90
2022-11-12T10:55:30.184Z,14.47
2022-11-12T10:58:13.803Z,17.33
2022-11-12T11:01:00.939Z,13.43
2022-11-12T11:03:31.249Z,19.13
2022-11-12T11:06:01.551Z,17.23
2022-11-12T11:08:37.818Z,13.13
2022-11-12T11:11:10.478Z,15.50
2022-11-12T11:13:36.907Z,10.50
2022-11-12T11:16:05.955Z,10.23
2022-11-12T11:18:34.493Z,13.10
2022-11-12T11:21:04.382Z,13.80
2022-11-12T11:23:42.871Z,12.73
2022-11-12T11:26:31.249Z,7.43
2022-11-12T11:28:57.690Z,15.97
2022-11-12T11:31:54.685Z,11.70
2022-11-12T11:34:24.037Z,16.23
2022-11-12T11:37:29.247Z,7.77
2022-11-12T11:40:14.549Z,12.37
2022-11-12T11:42:43.546Z,11.97
2022-11-12T11:45:17.446Z,12.63
2022-11-12T11:48:31.771Z,10.73
2022-11-12T11:51:24.812Z,17.03
2022-11-12T11:54:10.600Z,11.70
2022-11-12T11:56:40.747Z,10.67
2022-11-12T11:59:28.694Z,11.33
2022-11-12T12:02:25.574Z,16.47
2022-11-12T12:05:02.957Z,19.37
2022-11-12T12:07:39.250Z,14.43
2022-11-12T12:10:11.750Z,13.23
2022-11-12T12:13:07.613Z,15.10
2022-11-12T12:15:45.608Z,17.77
2022-11-12T12:18:26.785Z,15.63
2022-11-12T12:21:00.719Z,23.87
2022-11-12T12:23:49.350Z,16.27
2022-11-12T12:26:40.469Z,6.93
2022-11-12T12:29:17.692Z,11.90
2022-11-12T12:32:04.459Z,11.47
2022-11-12T12:34:33.916Z,14.47
2022-11-12T12:37:12.767Z,12.10
2022-11-12T12:40:09.483Z,11.50
2022-11-12T12:42:42.114Z,9.77
2022-11-12T12:45:31.963Z,79.47
2022-11-12T12:48:04.741Z,20.00
2022-11-12T12:50:31.271Z,9.93
2022-11-12T12:53:02.660Z,14.47
2022-11-12T12:55:50.245Z,10.90
2022-11-12T12:58:41.440Z,15.23
2022-11-12T13:01:19.968Z,16.33
2022-11-12T13:04:04.486Z,21.40
2022-11-12T13:06:33.991Z,13.40
2022-11-12T13:09:12.496Z,16.73
2022-11-12T13:12:00.692Z,10.80
2022-11-12T13:14:36.104Z,16.90
2022-11-12T13:17:08.447Z,17.93
2022-11-12T13:19:43.817Z,16.97
2022-11-12T13:22:19.405Z,11.63
2022-11-12T13:25:04.662Z,24.23
2022-11-12T13:27:40.333Z,13.57
2022-11-12T13:30:13.894Z,11.40
2022-11-12T13:32:54.302Z,15.97
2022-11-12T13:35:20.751Z,13.40
2022-11-12T13:38:09.008Z,8.43
2022-11-12T13:40:50.654Z,15.17
2022-11-12T13:43:25.117Z,9.03
2022-11-12T13:45:56.002Z,18.43
2022-11-12T13:48:30.047Z,20.40
2022-11-12T13:51:01.598Z,25.20
2022-11-12T13:53:30.845Z,23.93
2022-11-12T13:55:57.586Z,20.23
2022-11-12T13:58:34.658Z,14.00
2022-11-12T14:01:04.081Z,12.03
2022-11-12T14:03:51.152Z,14.47
2022-11-12T14:06:22.454Z,10.90
2022-11-12T14:09:10.801Z,19.33
2022-11-12T14:11:51.782Z,11.47
2022-11-12T14:14:36.931Z,9.70
2022-11-12T14:17:22.498Z,9.40
2022-11-12T14:20:17.111Z,15.90
2022-11-12T14:22:44.933Z,13.17
2022-11-12T14:25:19.201Z,24.97
2022-11-12T14:27:47.176Z,23.20
2022-11-12T14:30:17.981Z,31.73
2022-11-12T14:32:46.523Z,25.97
2022-11-12T14:35:19.809Z,25.60
2022-11-12T14:37:52.735Z,14.17
2022-11-12T14:40:19.519Z,14.50
2022-11-12T14:42:46.261Z,13.30
2022-11-12T14:45:17.116Z,18.33
2022-11-12T14:47:44.865Z,13.07
2022-11-12T14:50:18.069Z,16.20
2022-11-12T14:52:47.789Z,10.03
2022-11-12T14:55:18.596Z,15.47
2022-11-12T14:57:45.171Z,9.17
2022-11-12T15:00:18.915Z,9.10
2022-11-12T15:02:55.762Z,10.93
2022-11-12T15:05:27.464Z,14.43
2022-11-12T15:08:03.086Z,12.33
2022-11-12T15:10:35.175Z,15.47
2022-11-12T15:13:13.828Z,28.00
2022-11-12T15:16:05.221Z,18.37
2022-11-12T15:18:32.750Z,31.47
2022-11-12T15:21:05.238Z,36.03
2022-11-12T15:23:31.740Z,17.03
2022-11-12T15:25:59.204Z,26.90
2022-11-12T15:28:26.620Z,20.27
2022-11-12T15:31:07.178Z,22.57
2022-11-12T15:33:33.712Z,21.73
2022-11-12T15:36:00.959Z,27.57
2022-11-12T15:38:31.803Z,22.83
2022-11-12T15:40:59.843Z,13.17
2022-11-12T15:43:29.127Z,18.13
2022-11-12T15:45:56.190Z,15.50
2022-11-12T15:48:23.165Z,20.73
2022-11-12T15:50:50.151Z,15.17
2022-11-12T15:53:16.815Z,20.67
2022-11-12T15:55:44.071Z,19.00
2022-11-12T15:58:16.974Z,21.70
2022-11-12T16:00:43.546Z,20.83
2022-11-12T16:03:17.468Z,21.50
2022-11-12T16:05:44.575Z,22.40
2022-11-12T16:08:11.312Z,21.00
2022-11-12T16:10:42.479Z,21.60
2022-11-12T16:13:15.774Z,17.80
2022-11-12T16:15:42.215Z,19.93
2022-11-12T16:18:11.583Z,20.97
2022-11-12T16:20:38.574Z,15.07
2022-11-12T16:23:05.135Z,27.07
2022-11-12T16:25:33.967Z,14.90
2022-11-12T16:28:01.308Z,17.50
2022-11-12T16:30:31.895Z,21.13
2022-11-12T16:32:59.466Z,19.57
2022-11-12T16:35:27.241Z,25.40
2022-11-12T16:37:54.846Z,13.67
2022-11-12T16:40:26.313Z,19.20
2022-11-12T16:42:53.058Z,19.63
2022-11-12T16:45:22.328Z,22.70
2022-11-12T16:47:50.866Z,18.30
2022-11-12T16:50:21.693Z,22.70
2022-11-12T16:52:48.729Z,16.93
2022-11-12T16:55:15.822Z,20.93
2022-11-12T16:57:42.975Z,27.73
2022-11-12T17:00:17.567Z,20.10
2022-11-12T17:02:47.255Z,16.93
2022-11-12T17:05:23.029Z,33.93
2022-11-12T17:07:50.332Z,21.90
2022-11-12T17:10:17.150Z,35.80
2022-11-12T17:12:43.641Z,27.43
2022-11-12T17:15:10.395Z,22.43
2022-11-12T17:17:36.835Z,21.67
2022-11-12T17:20:04.169Z,28.13
2022-11-12T17:22:31.350Z,21.70
2022-11-12T17:24:57.796Z,27.97
2022-11-12T17:27:24.243Z,23.23
2022-11-12T17:29:50.665Z,18.80
2022-11-12T17:32:17.232Z,20.40
2022-11-12T17:34:43.803Z,19.63
2022-11-12T17:37:10.314Z,28.77
2022-11-12T17:39:36.805Z,35.73
2022-11-12T17:42:03.413Z,43.30
2022-11-12T17:44:29.902Z,34.30
2022-11-12T17:46:56.668Z,29.33
2022-11-12T17:49:23.113Z,46.43
2022-11-12T17:51:49.632Z,28.53
2022-11-12T17:54:16.103Z,33.27
2022-11-12T17:56:42.660Z,32.93
2022-11-12T17:59:09.139Z,33.97
2022-11-12T18:01:35.731Z,21.80
2022-11-12T18:04:02.260Z,26.83
2022-11-12T18:06:30.582Z,24.83
2022-11-12T18:08:59.452Z,23.57
2022-11-12T18:11:27.900Z,23.77
2022-11-12T18:13:54.680Z,18.13
2022-11-12T18:16:28.284Z,19.10
2022-11-12T18:18:56.009Z,18.07
2022-11-12T18:21:23.712Z,17.23
2022-11-12T18:23:50.383Z,27.13
2022-11-12T18:26:18.920Z,21.87
2022-11-12T18:28:51.284Z,21.40
2022-11-12T18:31:17.895Z,25.60
2022-11-12T18:33:44.422Z,20.30
2022-11-12T18:36:13.213Z,28.27
2022-11-12T18:38:39.707Z,31.30
2022-11-12T18:41:09.185Z,29.37
2022-11-12T18:43:36.258Z,26.63
2022-11-12T18:46:03.080Z,38.53
2022-11-12T18:48:31.047Z,46.17
2022-11-12T18:51:02.669Z,28.03
2022-11-12T18:53:30.192Z,25.00
2022-11-12T18:56:01.197Z,30.17
2022-11-12T18:58:34.670Z,32.63
2022-11-12T19:01:06.899Z,37.73
2022-11-12T19:03:33.375Z,50.37
2022-11-12T19:06:00.880Z,49.90
2022-11-12T19:08:27.759Z,44.70
2022-11-12T19:10:58.533Z,41.73
2022-11-12T19:13:25.522Z,42.20
2022-11-12T19:15:52.785Z,54.10
2022-11-12T19:18:19.428Z,43.30
2022-11-12T19:20:47.518Z,41.60
2022-11-12T19:23:14.246Z,32.40
2022-11-12T19:25:40.729Z,34.20
2022-11-12T19:28:07.197Z,32.60
2022-11-12T19:30:33.700Z,26.87
2022-11-12T19:33:00.187Z,27.90
2022-11-12T19:35:26.876Z,31.93
2022-11-12T19:37:53.430Z,40.30
2022-11-12T19:40:20.028Z,35.13
2022-11-12T19:42:48.009Z,32.17
2022-11-12T19:45:14.605Z,31.53
2022-11-12T19:47:41.162Z,33.13
2022-11-12T19:50:08.165Z,37.57
2022-11-12T19:52:34.673Z,39.63
2022-11-12T19:55:01.236Z,32.13
2022-11-12T19:57:29.096Z,36.33
2022-11-12T19:59:55.603Z,39.73
2022-11-12T20:02:22.049Z,37.93
2022-11-12T20:04:48.748Z,30.43
2022-11-12T20:07:15.418Z,33.17
2022-11-12T20:09:42.571Z,31.73
2022-11-12T20:12:09.173Z,33.90
2022-11-12T20:14:35.659Z,25.70
2022-11-12T20:17:02.235Z,32.30
2022-11-12T20:19:28.763Z,26.60
2022-11-12T20:21:55.257Z,37.17
2022-11-12T20:24:21.791Z,28.60
2022-11-12T20:26:48.410Z,39.00
2022-11-12T20:29:14.923Z,24.93
2022-11-12T20:31:42.043Z,29.90
2022-11-12T20:34:08.734Z,31.07
2022-11-12T20:36:35.249Z,28.87
2022-11-12T20:39:03.101Z,28.30
2022-11-12T20:41:29.623Z,25.63
2022-11-12T20:43:58.138Z,33.87
2022-11-12T20:46:25.629Z,29.87
2022-11-12T20:48:54.085Z,32.63
2022-11-12T20:51:25.051Z,37.30
2022-11-12T20:53:59.933Z,38.97
2022-11-12T20:56:29.209Z,34.63
2022-11-12T20:58:55.908Z,40.30
2022-11-12T21:01:23.407Z,41.87
2022-11-12T21:03:50.155Z,45.03
2022-11-12T21:06:22.058Z,30.53
2022-11-12T21:08:48.618Z,28.80
2022-11-12T21:11:17.795Z,38.70
2022-11-12T21:13:44.294Z,25.83
2022-11-12T21:16:12.278Z,24.13
2022-11-12T21:18:39.059Z,31.23
2022-11-12T21:21:09.701Z,30.37
2022-11-12T21:23:38.123Z,35.17
2022-11-12T21:26:06.878Z,27.90
2022-11-12T21:28:36.885Z,32.40
2022-11-12T21:31:08.511Z,26.20
2022-11-12T21:33:35.578Z,30.80
2022-11-12T21:36:03.891Z,27.13
2022-11-12T21:38:30.947Z,31.13
2022-11-12T21:41:11.487Z,33.07
2022-11-12T21:43:39.207Z,38.80
2022-11-12T21:46:30.952Z,27.90
2022-11-12T21:48:57.807Z,29.87
2022-11-12T21:51:26.462Z,36.47
2022-11-12T21:53:57.819Z,41.47
2022-11-12T21:56:25.252Z,25.07
2022-11-12T21:58:53.711Z,28.17
2022-11-12T22:01:25.307Z,25.53
2022-11-12T22:03:53.211Z,20.53
2022-11-12T22:06:20.816Z,23.57
2022-11-12T22:08:47.448Z,20.23
2022-11-12T22:11:15.761Z,12.23
2022-11-12T22:13:42.580Z,18.10
2022-11-12T22:16:20.514Z,26.73
2022-11-12T22:18:49.190Z,19.80
2022-11-12T22:21:18.788Z,15.50
2022-11-12T22:23:45.568Z,16.77
2022-11-12T22:26:17.135Z,17.33
2022-11-12T22:28:43.917Z,16.57
2022-11-12T22:31:15.686Z,18.80
2022-11-12T22:33:42.494Z,15.63
2022-11-12T22:36:14.455Z,19.13
2022-11-12T22:38:43.257Z,26.03
2022-11-12T22:41:29.824Z,22.27
2022-11-12T22:43:58.156Z,25.73
2022-11-12T22:46:27.136Z,20.30
2022-11-12T22:48:53.739Z,24.10
2022-11-12T22:51:22.490Z,22.37
2022-11-12T22:53:56.418Z,25.93
2022-11-12T22:56:23.980Z,33.20
2022-11-12T22:58:51.359Z,31.30
2022-11-12T23:01:26.573Z,25.80
2022-11-12T23:03:55.912Z,29.37
2022-11-12T23:06:22.879Z,27.50
2022-11-12T23:08:49.621Z,27.50
2022-11-12T23:11:18.016Z,23.60
2022-11-12T23:13:44.635Z,25.30
2022-11-12T23:16:17.021Z,35.97
2022-11-12T23:18:43.740Z,29.87
2022-11-12T23:21:13.389Z,24.70
2022-11-12T23:23:40.275Z,28.43
2022-11-12T23:26:16.146Z,29.90
2022-11-12T23:28:42.815Z,30.33
2022-11-12T23:31:14.496Z,25.03
2022-11-12T23:33:48.966Z,31.23
2022-11-12T23:36:15.655Z,79.23
2022-11-12T23:38:42.825Z,27.63
2022-11-12T23:41:15.102Z,37.43
2022-11-12T23:43:41.911Z,31.03
2022-11-12T23:46:09.069Z,34.00
2022-11-12T23:48:35.607Z,33.43
2022-11-12T23:51:11.029Z,31.47
2022-11-12T23:53:38.052Z,40.77
2022-11-12T23:56:06.178Z,83.33
2022-11-12T23:58:32.973Z,44.23
